sensor_id;sensor_type;location;lat;lon;timestamp;P1;durP1;ratioP1;P2;durP2;ratioP2
43706;SDS011;61348;53.392;-6.248;2022-10-31T00:01:24;13.50;;;3.65;;
43706;SDS011;61348;53.392;-6.248;2022-10-31T00:03:56;14.50;;;5.10;;
43706;SDS011;61348;53.392;-6.248;2022-10-31T00:06:22;9.95;;;3.47;;
43706;SDS011;61348;53.392;-6.248;2022-10-31T00:08:53;14.68;;;5.57;;
43706;SDS011;61348;53.392;-6.248;2022-10-31T00:11:25;16.55;;;4.15;;
43706;SDS011;61348;53.392;-6.248;2022-10-31T00:13:52;16.92;;;4.40;;
43706;SDS011;61348;53.392;-6.248;2022-10-31T00:16:20;13.45;;;4.95;;
43706;SDS011;61348;53.392;-6.248;2022-10-31T00:18:48;17.98;;;4.60;;
43706;SDS011;61348;53.392;-6.248;2022-10-31T00:21:16;15.38;;;3.83;;
43706;SDS011;61348;53.392;-6.248;2022-10-31T00:23:43;10.15;;;3.92;;
43706;SDS011;61348;53.392;-6.248;2022-10-31T00:26:09;17.38;;;3.38;;
43706;SDS011;61348;53.392;-6.248;2022-10-31T00:28:36;14.50;;;3.60;;
43706;SDS011;61348;53.392;-6.248;2022-10-31T00:31:04;15.95;;;3.47;;
43706;SDS011;61348;53.392;-6.248;2022-10-31T00:33:33;23.58;;;4.60;;
43706;SDS011;61348;53.392;-6.248;2022-10-31T00:36:03;18.40;;;4.00;;
43706;SDS011;61348;53.392;-6.248;2022-10-31T00:38:31;21.73;;;5.60;;
43706;SDS011;61348;53.392;-6.248;2022-10-31T00:40:58;12.18;;;3.70;;
43706;SDS011;61348;53.392;-6.248;2022-10-31T00:43:24;11.10;;;2.42;;
43706;SDS011;61348;53.392;-6.248;2022-10-31T00:45:51;11.32;;;3.10;;
43706;SDS011;61348;53.392;-6.248;2022-10-31T00:48:18;12.40;;;2.28;;
43706;SDS011;61348;53.392;-6.248;2022-10-31T00:50:44;12.20;;;2.50;;
43706;SDS011;61348;53.392;-6.248;2022-10-31T00:53:11;7.82;;;1.90;;
43706;SDS011;61348;53.392;-6.248;2022-10-31T00:55:38;9.00;;;2.53;;
43706;SDS011;61348;53.392;-6.248;2022-10-31T00:58:04;17.80;;;4.32;;
43706;SDS011;61348;53.392;-6.248;2022-10-31T01:00:31;5.80;;;1.83;;
43706;SDS011;61348;53.392;-6.248;2022-10-31T01:02:58;10.32;;;1.95;;
43706;SDS011;61348;53.392;-6.248;2022-10-31T01:05:25;11.70;;;2.80;;
43706;SDS011;61348;53.392;-6.248;2022-10-31T01:07:52;19.45;;;3.92;;
43706;SDS011;61348;53.392;-6.248;2022-10-31T01:10:18;21.13;;;4.03;;
43706;SDS011;61348;53.392;-6.248;2022-10-31T01:12:46;18.73;;;3.00;;
43706;SDS011;61348;53.392;-6.248;2022-10-31T01:15:15;15.05;;;3.85;;
43706;SDS011;61348;53.392;-6.248;2022-10-31T01:17:47;12.23;;;2.83;;
43706;SDS011;61348;53.392;-6.248;2022-10-31T01:20:14;18.77;;;2.97;;
43706;SDS011;61348;53.392;-6.248;2022-10-31T01:22:42;10.27;;;2.17;;
43706;SDS011;61348;53.392;-6.248;2022-10-31T01:25:09;18.08;;;2.92;;
43706;SDS011;61348;53.392;-6.248;2022-10-31T01:27:36;23.23;;;5.30;;
43706;SDS011;61348;53.392;-6.248;2022-10-31T01:30:03;13.35;;;2.85;;
43706;SDS011;61348;53.392;-6.248;2022-10-31T01:32:31;20.98;;;5.40;;
43706;SDS011;61348;53.392;-6.248;2022-10-31T01:34:58;14.73;;;2.35;;
43706;SDS011;61348;53.392;-6.248;2022-10-31T01:37:25;14.85;;;2.47;;
43706;SDS011;61348;53.392;-6.248;2022-10-31T01:39:51;11.85;;;3.25;;
43706;SDS011;61348;53.392;-6.248;2022-10-31T01:42:19;19.50;;;3.15;;
43706;SDS011;61348;53.392;-6.248;2022-10-31T01:47:21;15.18;;;4.20;;
43706;SDS011;61348;53.392;-6.248;2022-10-31T01:49:57;13.10;;;2.72;;
43706;SDS011;61348;53.392;-6.248;2022-10-31T01:52:28;12.63;;;2.20;;
43706;SDS011;61348;53.392;-6.248;2022-10-31T01:55:03;23.47;;;4.20;;
43706;SDS011;61348;53.392;-6.248;2022-10-31T01:57:33;13.38;;;2.00;;
43706;SDS011;61348;53.392;-6.248;2022-10-31T02:00:04;9.60;;;1.92;;
43706;SDS011;61348;53.392;-6.248;2022-10-31T02:02:34;14.68;;;2.90;;
43706;SDS011;61348;53.392;-6.248;2022-10-31T02:05:02;12.43;;;3.03;;
43706;SDS011;61348;53.392;-6.248;2022-10-31T02:10:06;6.60;;;1.57;;
43706;SDS011;61348;53.392;-6.248;2022-10-31T02:12:32;6.22;;;1.45;;
43706;SDS011;61348;53.392;-6.248;2022-10-31T02:15:03;8.88;;;1.42;;
43706;SDS011;61348;53.392;-6.248;2022-10-31T02:17:30;7.82;;;1.50;;
43706;SDS011;61348;53.392;-6.248;2022-10-31T02:20:03;7.85;;;1.42;;
43706;SDS011;61348;53.392;-6.248;2022-10-31T02:22:50;10.65;;;1.73;;
43706;SDS011;61348;53.392;-6.248;2022-10-31T02:28:47;10.95;;;1.80;;
43706;SDS011;61348;53.392;-6.248;2022-10-31T02:37:07;14.45;;;2.53;;
43706;SDS011;61348;53.392;-6.248;2022-10-31T02:42:33;9.82;;;2.08;;
43706;SDS011;61348;53.392;-6.248;2022-10-31T02:47:53;16.23;;;2.85;;
43706;SDS011;61348;53.392;-6.248;2022-10-31T02:50:27;14.52;;;2.75;;
43706;SDS011;61348;53.392;-6.248;2022-10-31T02:52:57;13.20;;;4.40;;
43706;SDS011;61348;53.392;-6.248;2022-10-31T02:57:54;8.07;;;1.38;;
43706;SDS011;61348;53.392;-6.248;2022-10-31T03:06:46;12.13;;;1.92;;
43706;SDS011;61348;53.392;-6.248;2022-10-31T03:09:24;11.15;;;2.55;;
43706;SDS011;61348;53.392;-6.248;2022-10-31T03:12:04;15.98;;;2.55;;
43706;SDS011;61348;53.392;-6.248;2022-10-31T03:14:43;14.00;;;2.28;;
43706;SDS011;61348;53.392;-6.248;2022-10-31T03:20:08;14.15;;;2.30;;
43706;SDS011;61348;53.392;-6.248;2022-10-31T03:22:37;11.43;;;1.85;;
43706;SDS011;61348;53.392;-6.248;2022-10-31T03:25:09;7.75;;;1.83;;
43706;SDS011;61348;53.392;-6.248;2022-10-31T03:27:38;9.15;;;2.85;;
43706;SDS011;61348;53.392;-6.248;2022-10-31T03:30:08;9.38;;;3.15;;
43706;SDS011;61348;53.392;-6.248;2022-10-31T03:32:51;11.02;;;1.67;;
43706;SDS011;61348;53.392;-6.248;2022-10-31T03:35:23;12.30;;;2.03;;
43706;SDS011;61348;53.392;-6.248;2022-10-31T03:37:51;8.40;;;1.85;;
43706;SDS011;61348;53.392;-6.248;2022-10-31T03:40:20;10.95;;;1.85;;
43706;SDS011;61348;53.392;-6.248;2022-10-31T03:42:51;10.10;;;1.75;;
43706;SDS011;61348;53.392;-6.248;2022-10-31T03:45:24;9.85;;;1.52;;
43706;SDS011;61348;53.392;-6.248;2022-10-31T03:47:53;11.90;;;1.65;;
43706;SDS011;61348;53.392;-6.248;2022-10-31T03:50:23;8.02;;;1.75;;
43706;SDS011;61348;53.392;-6.248;2022-10-31T03:58:29;9.55;;;1.55;;
43706;SDS011;61348;53.392;-6.248;2022-10-31T04:01:03;14.75;;;1.65;;
43706;SDS011;61348;53.392;-6.248;2022-10-31T04:03:35;7.22;;;2.33;;
43706;SDS011;61348;53.392;-6.248;2022-10-31T04:06:05;11.13;;;2.50;;
43706;SDS011;61348;53.392;-6.248;2022-10-31T04:08:42;11.07;;;2.67;;
43706;SDS011;61348;53.392;-6.248;2022-10-31T04:11:14;12.55;;;1.92;;
43706;SDS011;61348;53.392;-6.248;2022-10-31T04:13:46;16.10;;;3.78;;
43706;SDS011;61348;53.392;-6.248;2022-10-31T04:16:16;12.57;;;2.28;;
43706;SDS011;61348;53.392;-6.248;2022-10-31T04:18:44;7.50;;;1.67;;
43706;SDS011;61348;53.392;-6.248;2022-10-31T04:21:11;15.30;;;1.95;;
43706;SDS011;61348;53.392;-6.248;2022-10-31T04:23:37;12.80;;;2.33;;
43706;SDS011;61348;53.392;-6.248;2022-10-31T04:26:04;8.75;;;1.27;;
43706;SDS011;61348;53.392;-6.248;2022-10-31T04:28:31;5.15;;;2.08;;
43706;SDS011;61348;53.392;-6.248;2022-10-31T04:31:00;10.77;;;2.88;;
43706;SDS011;61348;53.392;-6.248;2022-10-31T04:33:27;13.07;;;3.47;;
43706;SDS011;61348;53.392;-6.248;2022-10-31T04:35:54;8.68;;;2.10;;
43706;SDS011;61348;53.392;-6.248;2022-10-31T04:38:20;13.30;;;2.17;;
43706;SDS011;61348;53.392;-6.248;2022-10-31T04:40:47;7.22;;;1.73;;
43706;SDS011;61348;53.392;-6.248;2022-10-31T04:43:14;8.55;;;2.40;;
43706;SDS011;61348;53.392;-6.248;2022-10-31T04:45:40;7.13;;;1.90;;
43706;SDS011;61348;53.392;-6.248;2022-10-31T04:48:07;9.88;;;1.88;;
43706;SDS011;61348;53.392;-6.248;2022-10-31T04:50:33;11.93;;;2.65;;
43706;SDS011;61348;53.392;-6.248;2022-10-31T04:53:01;9.50;;;1.08;;
43706;SDS011;61348;53.392;-6.248;2022-10-31T04:55:28;8.13;;;1.30;;
43706;SDS011;61348;53.392;-6.248;2022-10-31T04:57:55;7.38;;;1.23;;
43706;SDS011;61348;53.392;-6.248;2022-10-31T05:00:22;6.75;;;1.13;;
43706;SDS011;61348;53.392;-6.248;2022-10-31T05:02:52;5.18;;;1.25;;
43706;SDS011;61348;53.392;-6.248;2022-10-31T05:05:26;8.73;;;2.28;;
43706;SDS011;61348;53.392;-6.248;2022-10-31T05:07:54;8.82;;;1.45;;
43706;SDS011;61348;53.392;-6.248;2022-10-31T05:10:22;7.93;;;1.40;;
43706;SDS011;61348;53.392;-6.248;2022-10-31T05:12:51;13.00;;;1.85;;
43706;SDS011;61348;53.392;-6.248;2022-10-31T05:15:23;13.38;;;1.88;;
43706;SDS011;61348;53.392;-6.248;2022-10-31T05:17:51;14.80;;;3.28;;
43706;SDS011;61348;53.392;-6.248;2022-10-31T05:20:20;11.95;;;1.80;;
43706;SDS011;61348;53.392;-6.248;2022-10-31T05:22:49;19.70;;;4.88;;
43706;SDS011;61348;53.392;-6.248;2022-10-31T05:25:18;8.90;;;1.83;;
43706;SDS011;61348;53.392;-6.248;2022-10-31T05:27:46;9.57;;;1.85;;
43706;SDS011;61348;53.392;-6.248;2022-10-31T05:30:15;10.38;;;2.53;;
43706;SDS011;61348;53.392;-6.248;2022-10-31T05:32:48;8.48;;;2.30;;
43706;SDS011;61348;53.392;-6.248;2022-10-31T05:35:17;7.47;;;1.75;;
43706;SDS011;61348;53.392;-6.248;2022-10-31T05:37:45;13.90;;;1.77;;
43706;SDS011;61348;53.392;-6.248;2022-10-31T05:40:12;7.47;;;1.50;;
43706;SDS011;61348;53.392;-6.248;2022-10-31T05:42:40;9.07;;;1.77;;
43706;SDS011;61348;53.392;-6.248;2022-10-31T05:45:08;8.93;;;1.60;;
43706;SDS011;61348;53.392;-6.248;2022-10-31T05:47:36;19.10;;;2.80;;
43706;SDS011;61348;53.392;-6.248;2022-10-31T05:50:03;6.25;;;1.20;;
43706;SDS011;61348;53.392;-6.248;2022-10-31T05:52:31;3.85;;;0.93;;
43706;SDS011;61348;53.392;-6.248;2022-10-31T05:54:58;9.25;;;0.80;;
43706;SDS011;61348;53.392;-6.248;2022-10-31T05:57:25;4.05;;;2.00;;
43706;SDS011;61348;53.392;-6.248;2022-10-31T05:59:52;5.80;;;1.00;;
43706;SDS011;61348;53.392;-6.248;2022-10-31T06:02:21;6.38;;;0.93;;
43706;SDS011;61348;53.392;-6.248;2022-10-31T06:04:48;8.32;;;1.77;;
43706;SDS011;61348;53.392;-6.248;2022-10-31T06:07:15;5.05;;;1.65;;
43706;SDS011;61348;53.392;-6.248;2022-10-31T06:09:44;11.88;;;1.88;;
43706;SDS011;61348;53.392;-6.248;2022-10-31T06:12:11;10.30;;;1.30;;
43706;SDS011;61348;53.392;-6.248;2022-10-31T06:14:37;7.75;;;1.55;;
43706;SDS011;61348;53.392;-6.248;2022-10-31T06:17:04;7.60;;;1.30;;
43706;SDS011;61348;53.392;-6.248;2022-10-31T06:19:31;11.00;;;1.55;;
43706;SDS011;61348;53.392;-6.248;2022-10-31T06:21:57;18.00;;;2.75;;
43706;SDS011;61348;53.392;-6.248;2022-10-31T06:24:24;11.52;;;1.80;;
43706;SDS011;61348;53.392;-6.248;2022-10-31T06:26:50;9.90;;;2.03;;
43706;SDS011;61348;53.392;-6.248;2022-10-31T06:29:17;10.98;;;1.80;;
43706;SDS011;61348;53.392;-6.248;2022-10-31T06:31:44;12.63;;;1.90;;
43706;SDS011;61348;53.392;-6.248;2022-10-31T06:34:10;13.15;;;2.67;;
43706;SDS011;61348;53.392;-6.248;2022-10-31T06:36:37;17.05;;;2.58;;
43706;SDS011;61348;53.392;-6.248;2022-10-31T06:39:04;15.18;;;2.75;;
43706;SDS011;61348;53.392;-6.248;2022-10-31T06:41:30;11.77;;;2.20;;
43706;SDS011;61348;53.392;-6.248;2022-10-31T06:43:57;7.28;;;1.63;;
43706;SDS011;61348;53.392;-6.248;2022-10-31T06:46:23;12.02;;;1.75;;
43706;SDS011;61348;53.392;-6.248;2022-10-31T06:48:50;7.50;;;2.35;;
43706;SDS011;61348;53.392;-6.248;2022-10-31T06:51:17;11.13;;;1.67;;
43706;SDS011;61348;53.392;-6.248;2022-10-31T06:53:43;9.23;;;1.15;;
43706;SDS011;61348;53.392;-6.248;2022-10-31T06:56:10;7.80;;;1.67;;
43706;SDS011;61348;53.392;-6.248;2022-10-31T06:58:37;8.85;;;1.83;;
43706;SDS011;61348;53.392;-6.248;2022-10-31T07:01:03;9.60;;;2.35;;
43706;SDS011;61348;53.392;-6.248;2022-10-31T07:03:30;8.88;;;2.97;;
43706;SDS011;61348;53.392;-6.248;2022-10-31T07:05:57;13.30;;;3.05;;
43706;SDS011;61348;53.392;-6.248;2022-10-31T07:08:24;6.95;;;2.33;;
43706;SDS011;61348;53.392;-6.248;2022-10-31T07:10:53;15.00;;;2.17;;
43706;SDS011;61348;53.392;-6.248;2022-10-31T07:13:21;9.40;;;1.50;;
43706;SDS011;61348;53.392;-6.248;2022-10-31T07:15:53;7.75;;;1.65;;
43706;SDS011;61348;53.392;-6.248;2022-10-31T07:18:21;9.10;;;1.55;;
43706;SDS011;61348;53.392;-6.248;2022-10-31T07:20:49;10.98;;;1.63;;
43706;SDS011;61348;53.392;-6.248;2022-10-31T07:23:15;11.48;;;1.80;;
43706;SDS011;61348;53.392;-6.248;2022-10-31T07:25:42;12.55;;;2.53;;
43706;SDS011;61348;53.392;-6.248;2022-10-31T07:28:09;6.63;;;1.60;;
43706;SDS011;61348;53.392;-6.248;2022-10-31T07:30:37;7.53;;;1.60;;
43706;SDS011;61348;53.392;-6.248;2022-10-31T07:33:04;8.95;;;1.63;;
43706;SDS011;61348;53.392;-6.248;2022-10-31T07:35:31;36.05;;;4.57;;
43706;SDS011;61348;53.392;-6.248;2022-10-31T07:38:06;9.90;;;1.63;;
43706;SDS011;61348;53.392;-6.248;2022-10-31T07:40:35;11.32;;;1.60;;
43706;SDS011;61348;53.392;-6.248;2022-10-31T07:43:01;9.85;;;1.90;;
43706;SDS011;61348;53.392;-6.248;2022-10-31T07:45:28;10.32;;;1.92;;
43706;SDS011;61348;53.392;-6.248;2022-10-31T07:47:55;10.10;;;1.55;;
43706;SDS011;61348;53.392;-6.248;2022-10-31T07:50:29;12.05;;;1.77;;
43706;SDS011;61348;53.392;-6.248;2022-10-31T07:53:02;7.45;;;1.58;;
43706;SDS011;61348;53.392;-6.248;2022-10-31T07:55:30;5.63;;;1.30;;
43706;SDS011;61348;53.392;-6.248;2022-10-31T07:58:08;11.13;;;1.60;;
43706;SDS011;61348;53.392;-6.248;2022-10-31T08:00:40;8.32;;;1.65;;
43706;SDS011;61348;53.392;-6.248;2022-10-31T08:03:09;10.70;;;1.75;;
43706;SDS011;61348;53.392;-6.248;2022-10-31T08:05:41;10.07;;;1.92;;
43706;SDS011;61348;53.392;-6.248;2022-10-31T08:08:08;12.20;;;3.17;;
43706;SDS011;61348;53.392;-6.248;2022-10-31T08:10:35;9.70;;;2.15;;
43706;SDS011;61348;53.392;-6.248;2022-10-31T08:13:06;7.32;;;1.50;;
43706;SDS011;61348;53.392;-6.248;2022-10-31T08:15:34;8.93;;;1.70;;
43706;SDS011;61348;53.392;-6.248;2022-10-31T08:18:05;15.70;;;2.75;;
43706;SDS011;61348;53.392;-6.248;2022-10-31T08:20:32;14.80;;;3.42;;
43706;SDS011;61348;53.392;-6.248;2022-10-31T08:23:00;10.40;;;1.83;;
43706;SDS011;61348;53.392;-6.248;2022-10-31T08:25:29;10.85;;;2.08;;
43706;SDS011;61348;53.392;-6.248;2022-10-31T08:28:04;18.48;;;4.00;;
43706;SDS011;61348;53.392;-6.248;2022-10-31T08:30:32;16.60;;;2.03;;
43706;SDS011;61348;53.392;-6.248;2022-10-31T08:33:11;11.18;;;2.78;;
43706;SDS011;61348;53.392;-6.248;2022-10-31T08:35:39;10.88;;;2.83;;
43706;SDS011;61348;53.392;-6.248;2022-10-31T08:38:08;9.77;;;1.95;;
43706;SDS011;61348;53.392;-6.248;2022-10-31T08:40:36;8.10;;;1.88;;
43706;SDS011;61348;53.392;-6.248;2022-10-31T08:43:21;14.30;;;2.53;;
43706;SDS011;61348;53.392;-6.248;2022-10-31T08:45:48;10.60;;;2.28;;
43706;SDS011;61348;53.392;-6.248;2022-10-31T08:48:16;13.18;;;1.95;;
43706;SDS011;61348;53.392;-6.248;2022-10-31T08:50:44;7.43;;;2.17;;
43706;SDS011;61348;53.392;-6.248;2022-10-31T08:55:39;18.85;;;4.07;;
43706;SDS011;61348;53.392;-6.248;2022-10-31T08:58:12;12.27;;;4.28;;
43706;SDS011;61348;53.392;-6.248;2022-10-31T09:00:41;9.30;;;2.22;;
43706;SDS011;61348;53.392;-6.248;2022-10-31T09:03:10;8.02;;;2.92;;
43706;SDS011;61348;53.392;-6.248;2022-10-31T09:05:39;10.50;;;2.72;;
43706;SDS011;61348;53.392;-6.248;2022-10-31T09:08:07;7.20;;;1.90;;
43706;SDS011;61348;53.392;-6.248;2022-10-31T09:10:41;9.32;;;2.10;;
43706;SDS011;61348;53.392;-6.248;2022-10-31T09:13:09;10.48;;;1.90;;
43706;SDS011;61348;53.392;-6.248;2022-10-31T09:15:38;12.07;;;2.05;;
43706;SDS011;61348;53.392;-6.248;2022-10-31T09:18:07;12.10;;;2.25;;
43706;SDS011;61348;53.392;-6.248;2022-10-31T09:20:35;8.27;;;1.95;;
43706;SDS011;61348;53.392;-6.248;2022-10-31T09:23:04;10.55;;;1.92;;
43706;SDS011;61348;53.392;-6.248;2022-10-31T09:25:33;18.75;;;2.63;;
43706;SDS011;61348;53.392;-6.248;2022-10-31T09:28:01;6.95;;;1.70;;
43706;SDS011;61348;53.392;-6.248;2022-10-31T09:30:30;11.80;;;2.10;;
43706;SDS011;61348;53.392;-6.248;2022-10-31T09:33:04;7.75;;;1.60;;
43706;SDS011;61348;53.392;-6.248;2022-10-31T09:35:33;11.73;;;1.63;;
43706;SDS011;61348;53.392;-6.248;2022-10-31T09:38:01;15.55;;;2.67;;
43706;SDS011;61348;53.392;-6.248;2022-10-31T09:40:36;10.13;;;1.65;;
43706;SDS011;61348;53.392;-6.248;2022-10-31T09:49:01;10.05;;;3.08;;
43706;SDS011;61348;53.392;-6.248;2022-10-31T09:51:54;11.93;;;1.63;;
43706;SDS011;61348;53.392;-6.248;2022-10-31T09:54:47;11.27;;;1.83;;
43706;SDS011;61348;53.392;-6.248;2022-10-31T09:57:22;12.55;;;2.15;;
43706;SDS011;61348;53.392;-6.248;2022-10-31T09:59:53;16.02;;;2.85;;
43706;SDS011;61348;53.392;-6.248;2022-10-31T10:02:23;8.65;;;1.98;;
43706;SDS011;61348;53.392;-6.248;2022-10-31T10:04:58;14.57;;;1.90;;
43706;SDS011;61348;53.392;-6.248;2022-10-31T10:10:24;21.08;;;3.72;;
43706;SDS011;61348;53.392;-6.248;2022-10-31T10:32:52;9.98;;;1.65;;
43706;SDS011;61348;53.392;-6.248;2022-10-31T10:35:33;13.15;;;2.28;;
43706;SDS011;61348;53.392;-6.248;2022-10-31T10:40:47;18.35;;;2.22;;
43706;SDS011;61348;53.392;-6.248;2022-10-31T10:43:22;9.77;;;2.20;;
43706;SDS011;61348;53.392;-6.248;2022-10-31T10:51:54;9.35;;;1.98;;
43706;SDS011;61348;53.392;-6.248;2022-10-31T10:54:49;6.07;;;1.50;;
43706;SDS011;61348;53.392;-6.248;2022-10-31T11:02:52;11.82;;;1.85;;
43706;SDS011;61348;53.392;-6.248;2022-10-31T11:08:22;10.23;;;1.98;;
43706;SDS011;61348;53.392;-6.248;2022-10-31T11:10:58;8.43;;;2.00;;
43706;SDS011;61348;53.392;-6.248;2022-10-31T11:13:27;8.30;;;1.90;;
43706;SDS011;61348;53.392;-6.248;2022-10-31T11:16:04;4.85;;;1.52;;
43706;SDS011;61348;53.392;-6.248;2022-10-31T11:18:39;12.32;;;1.98;;
43706;SDS011;61348;53.392;-6.248;2022-10-31T11:23:47;15.95;;;3.58;;
43706;SDS011;61348;53.392;-6.248;2022-10-31T11:26:20;13.23;;;2.40;;
43706;SDS011;61348;53.392;-6.248;2022-10-31T11:28:57;13.10;;;2.67;;
43706;SDS011;61348;53.392;-6.248;2022-10-31T11:31:25;31.58;;;3.85;;
43706;SDS011;61348;53.392;-6.248;2022-10-31T11:33:57;11.48;;;2.08;;
43706;SDS011;61348;53.392;-6.248;2022-10-31T11:36:38;8.25;;;1.38;;
43706;SDS011;61348;53.392;-6.248;2022-10-31T11:39:13;9.88;;;2.38;;
43706;SDS011;61348;53.392;-6.248;2022-10-31T11:41:43;6.90;;;1.95;;
43706;SDS011;61348;53.392;-6.248;2022-10-31T11:44:12;10.80;;;1.98;;
43706;SDS011;61348;53.392;-6.248;2022-10-31T11:46:52;6.13;;;1.80;;
43706;SDS011;61348;53.392;-6.248;2022-10-31T11:49:28;12.25;;;1.85;;
43706;SDS011;61348;53.392;-6.248;2022-10-31T11:51:56;7.30;;;2.42;;
43706;SDS011;61348;53.392;-6.248;2022-10-31T11:54:34;9.43;;;2.75;;
43706;SDS011;61348;53.392;-6.248;2022-10-31T11:57:26;2.97;;;1.02;;
43706;SDS011;61348;53.392;-6.248;2022-10-31T12:00:04;3.75;;;0.90;;
43706;SDS011;61348;53.392;-6.248;2022-10-31T12:02:47;5.10;;;1.65;;
43706;SDS011;61348;53.392;-6.248;2022-10-31T12:05:18;5.13;;;1.50;;
43706;SDS011;61348;53.392;-6.248;2022-10-31T12:07:49;18.88;;;2.22;;
43706;SDS011;61348;53.392;-6.248;2022-10-31T12:10:16;6.93;;;1.63;;
43706;SDS011;61348;53.392;-6.248;2022-10-31T12:12:51;5.72;;;1.63;;
43706;SDS011;61348;53.392;-6.248;2022-10-31T12:20:45;4.32;;;1.58;;
43706;SDS011;61348;53.392;-6.248;2022-10-31T12:26:26;7.57;;;1.95;;
43706;SDS011;61348;53.392;-6.248;2022-10-31T12:29:09;9.10;;;3.05;;
43706;SDS011;61348;53.392;-6.248;2022-10-31T12:34:57;13.52;;;2.80;;
43706;SDS011;61348;53.392;-6.248;2022-10-31T12:48:31;16.92;;;3.40;;
43706;SDS011;61348;53.392;-6.248;2022-10-31T12:54:03;17.63;;;3.38;;
43706;SDS011;61348;53.392;-6.248;2022-10-31T12:56:54;13.35;;;2.67;;
43706;SDS011;61348;53.392;-6.248;2022-10-31T12:59:47;11.63;;;2.55;;
43706;SDS011;61348;53.392;-6.248;2022-10-31T13:02:44;16.05;;;2.50;;
43706;SDS011;61348;53.392;-6.248;2022-10-31T13:08:06;15.55;;;3.75;;
43706;SDS011;61348;53.392;-6.248;2022-10-31T13:10:42;16.70;;;3.50;;
43706;SDS011;61348;53.392;-6.248;2022-10-31T13:13:13;12.82;;;2.72;;
43706;SDS011;61348;53.392;-6.248;2022-10-31T13:15:48;16.98;;;2.33;;
43706;SDS011;61348;53.392;-6.248;2022-10-31T13:18:31;14.45;;;3.78;;
43706;SDS011;61348;53.392;-6.248;2022-10-31T13:21:02;10.52;;;2.88;;
43706;SDS011;61348;53.392;-6.248;2022-10-31T13:23:32;18.60;;;2.80;;
43706;SDS011;61348;53.392;-6.248;2022-10-31T13:31:56;12.13;;;2.60;;
43706;SDS011;61348;53.392;-6.248;2022-10-31T13:34:34;19.08;;;4.43;;
43706;SDS011;61348;53.392;-6.248;2022-10-31T13:37:34;10.38;;;3.03;;
43706;SDS011;61348;53.392;-6.248;2022-10-31T13:40:25;15.52;;;3.00;;
43706;SDS011;61348;53.392;-6.248;2022-10-31T13:43:03;14.13;;;2.85;;
43706;SDS011;61348;53.392;-6.248;2022-10-31T13:45:33;9.88;;;2.55;;
43706;SDS011;61348;53.392;-6.248;2022-10-31T13:50:33;14.80;;;2.22;;
43706;SDS011;61348;53.392;-6.248;2022-10-31T13:56:01;11.60;;;3.90;;
43706;SDS011;61348;53.392;-6.248;2022-10-31T13:58:31;14.90;;;2.38;;
43706;SDS011;61348;53.392;-6.248;2022-10-31T14:03:47;10.95;;;3.00;;
43706;SDS011;61348;53.392;-6.248;2022-10-31T14:09:39;11.23;;;2.55;;
43706;SDS011;61348;53.392;-6.248;2022-10-31T14:12:28;7.85;;;2.13;;
43706;SDS011;61348;53.392;-6.248;2022-10-31T14:15:20;11.35;;;2.08;;
43706;SDS011;61348;53.392;-6.248;2022-10-31T14:17:58;9.50;;;1.90;;
43706;SDS011;61348;53.392;-6.248;2022-10-31T14:20:39;10.27;;;2.10;;
43706;SDS011;61348;53.392;-6.248;2022-10-31T14:23:11;15.02;;;2.55;;
43706;SDS011;61348;53.392;-6.248;2022-10-31T14:25:39;12.05;;;2.20;;
43706;SDS011;61348;53.392;-6.248;2022-10-31T14:34:17;15.27;;;3.15;;
43706;SDS011;61348;53.392;-6.248;2022-10-31T14:39:28;12.32;;;2.38;;
43706;SDS011;61348;53.392;-6.248;2022-10-31T14:42:24;23.52;;;4.82;;
43706;SDS011;61348;53.392;-6.248;2022-10-31T14:53:18;9.25;;;3.75;;
43706;SDS011;61348;53.392;-6.248;2022-10-31T14:55:57;13.15;;;7.00;;
43706;SDS011;61348;53.392;-6.248;2022-10-31T14:58:39;14.43;;;4.00;;
43706;SDS011;61348;53.392;-6.248;2022-10-31T15:01:20;13.88;;;3.55;;
43706;SDS011;61348;53.392;-6.248;2022-10-31T15:03:50;14.70;;;4.47;;
43706;SDS011;61348;53.392;-6.248;2022-10-31T15:06:49;13.50;;;2.97;;
43706;SDS011;61348;53.392;-6.248;2022-10-31T15:09:35;7.65;;;2.05;;
43706;SDS011;61348;53.392;-6.248;2022-10-31T15:12:21;7.78;;;2.38;;
43706;SDS011;61348;53.392;-6.248;2022-10-31T15:14:55;13.82;;;2.38;;
43706;SDS011;61348;53.392;-6.248;2022-10-31T15:17:23;13.25;;;2.83;;
43706;SDS011;61348;53.392;-6.248;2022-10-31T15:19:52;6.40;;;2.00;;
43706;SDS011;61348;53.392;-6.248;2022-10-31T15:22:22;6.07;;;2.20;;
43706;SDS011;61348;53.392;-6.248;2022-10-31T15:24:50;7.82;;;2.65;;
43706;SDS011;61348;53.392;-6.248;2022-10-31T15:27:22;8.20;;;2.38;;
43706;SDS011;61348;53.392;-6.248;2022-10-31T15:29:51;7.53;;;2.63;;
43706;SDS011;61348;53.392;-6.248;2022-10-31T15:32:26;8.82;;;3.92;;
43706;SDS011;61348;53.392;-6.248;2022-10-31T15:34:55;6.07;;;2.03;;
43706;SDS011;61348;53.392;-6.248;2022-10-31T15:37:25;7.90;;;2.80;;
43706;SDS011;61348;53.392;-6.248;2022-10-31T15:39:52;5.32;;;2.50;;
43706;SDS011;61348;53.392;-6.248;2022-10-31T15:42:24;8.70;;;2.85;;
43706;SDS011;61348;53.392;-6.248;2022-10-31T15:44:56;16.38;;;6.43;;
43706;SDS011;61348;53.392;-6.248;2022-10-31T15:47:28;8.50;;;2.78;;
43706;SDS011;61348;53.392;-6.248;2022-10-31T15:49:57;12.35;;;3.85;;
43706;SDS011;61348;53.392;-6.248;2022-10-31T15:55:21;14.23;;;4.40;;
43706;SDS011;61348;53.392;-6.248;2022-10-31T15:57:50;9.70;;;3.13;;
43706;SDS011;61348;53.392;-6.248;2022-10-31T16:00:26;5.55;;;1.88;;
43706;SDS011;61348;53.392;-6.248;2022-10-31T16:03:04;6.70;;;2.35;;
43706;SDS011;61348;53.392;-6.248;2022-10-31T16:05:52;4.13;;;1.60;;
43706;SDS011;61348;53.392;-6.248;2022-10-31T16:13:41;4.68;;;2.00;;
43706;SDS011;61348;53.392;-6.248;2022-10-31T16:16:19;4.63;;;1.80;;
43706;SDS011;61348;53.392;-6.248;2022-10-31T16:19:01;9.48;;;2.50;;
43706;SDS011;61348;53.392;-6.248;2022-10-31T16:21:32;17.35;;;7.05;;
43706;SDS011;61348;53.392;-6.248;2022-10-31T16:24:02;15.32;;;6.13;;
43706;SDS011;61348;53.392;-6.248;2022-10-31T16:26:32;27.15;;;6.60;;
43706;SDS011;61348;53.392;-6.248;2022-10-31T16:29:00;13.57;;;6.05;;
43706;SDS011;61348;53.392;-6.248;2022-10-31T16:31:39;17.58;;;7.65;;
43706;SDS011;61348;53.392;-6.248;2022-10-31T16:34:13;42.47;;;19.80;;
43706;SDS011;61348;53.392;-6.248;2022-10-31T16:36:51;19.30;;;10.20;;
43706;SDS011;61348;53.392;-6.248;2022-10-31T16:39:18;40.45;;;16.60;;
43706;SDS011;61348;53.392;-6.248;2022-10-31T16:41:50;23.00;;;9.73;;
43706;SDS011;61348;53.392;-6.248;2022-10-31T16:44:22;17.08;;;6.28;;
43706;SDS011;61348;53.392;-6.248;2022-10-31T16:47:06;18.10;;;5.50;;
43706;SDS011;61348;53.392;-6.248;2022-10-31T16:49:36;14.85;;;5.45;;
43706;SDS011;61348;53.392;-6.248;2022-10-31T16:52:03;20.00;;;5.30;;
43706;SDS011;61348;53.392;-6.248;2022-10-31T16:54:30;14.00;;;5.15;;
43706;SDS011;61348;53.392;-6.248;2022-10-31T16:56:59;8.20;;;3.85;;
43706;SDS011;61348;53.392;-6.248;2022-10-31T16:59:28;24.02;;;9.90;;
43706;SDS011;61348;53.392;-6.248;2022-10-31T17:01:57;19.20;;;12.27;;
43706;SDS011;61348;53.392;-6.248;2022-10-31T17:04:24;23.85;;;10.57;;
43706;SDS011;61348;53.392;-6.248;2022-10-31T17:06:51;19.52;;;10.05;;
43706;SDS011;61348;53.392;-6.248;2022-10-31T17:09:18;20.35;;;8.70;;
43706;SDS011;61348;53.392;-6.248;2022-10-31T17:11:45;16.33;;;7.93;;
43706;SDS011;61348;53.392;-6.248;2022-10-31T17:14:16;24.05;;;7.95;;
43706;SDS011;61348;53.392;-6.248;2022-10-31T17:16:43;122.20;;;50.45;;
43706;SDS011;61348;53.392;-6.248;2022-10-31T17:19:10;112.45;;;50.92;;
43706;SDS011;61348;53.392;-6.248;2022-10-31T17:21:38;63.33;;;26.00;;
43706;SDS011;61348;53.392;-6.248;2022-10-31T17:24:06;78.60;;;33.33;;
43706;SDS011;61348;53.392;-6.248;2022-10-31T17:26:34;43.88;;;17.83;;
43706;SDS011;61348;53.392;-6.248;2022-10-31T17:29:00;38.15;;;18.35;;